Edgefield, South Carolina
Current Conditions -  °F | °C
As of 2:15 AM on Sunday 23 Nov 2014 (Local Time) from KAIK Reporting Station
Moderate Rain Moderate Rain  
Wind Chill: 48°   Ceiling: 8000
Heat Index: 48°   Visibility: 7mi
Dew Point: 48°   Wind: 3mph
Humidity: 100%   Direction: 30°NNE
Pressure: 30.26"   Gusts: NA
Location:  33.79°N, 81.93°W
Report Text: KAIK 230715Z AUTO 03003KT 7SM RA SCT050 SCT070 OVC080 09/09 A3026 RMK AO2 PNO
Loading
Personal Weather Stations






























Interactive Weather Map New forecast layout! Learn more

10-Day Weather Forecast

Advertisements
Track Severe Weather on mobile